Time;durP1;ratioP1;P1;durP2;ratioP2;P2;SDS_P1;SDS_P2;PMS_P1;PMS_P2;Temp;Humidity;BMP_temperature;BMP_pressure;BME280_temperature;BME280_humidity;BME280_pressure;Samples;Min_cycle;Max_cycle;Signal;HPM_P1;HPM_P2
2024/02/04 00:01:50;;;;;;;0.40;0.40;;;6.50;99.90;;;;;;5115835;27;20073;-79
2024/02/04 00:04:16;;;;;;;;;;;6.50;99.90;;;;;;5117525;27;20062;-79
2024/02/04 00:06:42;;;;;;;0.50;0.50;;;6.50;99.90;;;;;;5140417;27;20323;-78
2024/02/04 00:09:12;;;;;;;0.90;0.90;;;6.50;99.90;;;;;;5134562;27;20408;-79
2024/02/04 00:11:38;;;;;;;0.52;0.52;;;7.20;99.90;;;;;;5117977;27;20046;-77
2024/02/04 00:14:03;;;;;;;0.50;0.50;;;6.40;99.90;;;;;;5136294;27;20035;-78
2024/02/04 00:16:29;;;;;;;0.60;0.60;;;6.40;99.90;;;;;;5135891;27;20035;-77
2024/02/04 00:18:55;;;;;;;0.50;0.50;;;6.30;99.90;;;;;;5120129;27;20034;-79
2024/02/04 00:21:20;;;;;;;0.50;0.50;;;6.30;99.90;;;;;;5120276;27;20039;-79
2024/02/04 00:23:46;;;;;;;0.85;0.85;;;6.30;99.90;;;;;;5141884;27;20091;-77
2024/02/04 00:26:12;;;;;;;0.50;0.50;;;6.40;99.90;;;;;;5141072;27;20087;-78
2024/02/04 00:28:39;;;;;;;0.75;0.75;;;6.20;99.90;;;;;;5143310;27;20046;-77
2024/02/04 00:31:15;;;;;;;0.50;0.50;;;6.20;99.90;;;;;;5139061;27;20087;-77
2024/02/04 00:33:40;;;;;;;0.50;0.50;;;6.20;99.90;;;;;;5134023;27;20653;-76
2024/02/04 00:36:06;;;;;;;0.50;0.50;;;6.20;99.90;;;;;;5134842;27;20056;-78
2024/02/04 00:38:35;;;;;;;0.60;0.60;;;6.30;99.90;;;;;;5121296;27;20035;-78
2024/02/04 00:41:01;;;;;;;0.65;0.65;;;6.20;99.90;;;;;;5136528;27;20049;-78
2024/02/04 00:43:32;;;;;;;0.60;0.60;;;6.20;99.90;;;;;;5140445;27;20070;-78
2024/02/04 00:46:00;;;;;;;;;;;6.20;99.90;;;;;;5141619;27;20099;-77
2024/02/04 00:48:26;;;;;;;1.55;1.45;;;6.20;99.90;;;;;;5123417;27;19925;-79
2024/02/04 00:50:51;;;;;;;0.50;0.50;;;6.60;99.90;;;;;;5105481;27;20446;-80
2024/02/04 00:53:17;;;;;;;;;;;6.10;99.90;;;;;;5140045;27;20107;-78
2024/02/04 00:55:43;;;;;;;0.60;0.60;;;6.10;99.90;;;;;;5136244;27;19930;-78
2024/02/04 00:58:09;;;;;;;0.82;0.82;;;6.10;99.90;;;;;;5133215;27;20049;-77
2024/02/04 01:00:37;;;;;;;0.93;0.93;;;6.00;99.90;;;;;;5136296;27;20490;-79
2024/02/04 01:03:03;;;;;;;3.28;3.13;;;5.90;99.90;;;;;;5142490;27;20046;-77
2024/02/04 01:05:30;;;;;;;1.13;1.13;;;5.90;99.90;;;;;;5122433;27;20046;-78
2024/02/04 01:07:56;;;;;;;0.52;0.52;;;5.90;99.90;;;;;;5143811;27;20041;-77
2024/02/04 01:10:25;;;;;;;0.40;0.40;;;5.80;99.90;;;;;;5141153;27;20092;-77
2024/02/04 01:12:51;;;;;;;;;;;5.80;99.90;;;;;;5110309;27;20062;-79
2024/02/04 01:15:17;;;;;;;0.60;0.60;;;5.80;99.90;;;;;;5146087;27;19919;-79
2024/02/04 01:17:43;;;;;;;0.40;0.40;;;5.80;99.90;;;;;;5128283;27;20117;-78
2024/02/04 01:20:09;;;;;;;0.55;0.55;;;5.80;99.90;;;;;;5140869;27;20065;-78
2024/02/04 01:22:35;;;;;;;0.40;0.40;;;5.80;99.90;;;;;;5121255;27;20423;-77
2024/02/04 01:25:01;;;;;;;0.40;0.40;;;5.70;99.90;;;;;;5141965;27;20052;-79
2024/02/04 01:27:32;;;;;;;0.50;0.50;;;5.70;99.90;;;;;;5125973;27;20122;-79
2024/02/04 01:30:01;;;;;;;0.55;0.55;;;5.70;99.90;;;;;;5126558;27;20054;-79
2024/02/04 01:32:27;;;;;;;0.50;0.50;;;5.70;99.90;;;;;;5141953;27;20410;-79
2024/02/04 01:34:56;;;;;;;0.43;0.43;;;5.80;99.90;;;;;;5142995;27;20122;-79
2024/02/04 01:37:21;;;;;;;0.60;0.60;;;5.80;99.90;;;;;;5108393;27;20118;-79
2024/02/04 01:39:47;;;;;;;0.50;0.50;;;7.00;99.90;;;;;;5125714;27;20089;-79
2024/02/04 01:42:13;;;;;;;0.60;0.60;;;5.90;99.90;;;;;;5120477;27;20098;-78
2024/02/04 01:44:40;;;;;;;0.88;0.88;;;5.80;99.90;;;;;;5117211;27;20046;-78
2024/02/04 01:47:06;;;;;;;0.52;0.52;;;5.80;99.90;;;;;;5112157;27;20043;-78
2024/02/04 01:49:33;;;;;;;0.30;0.30;;;5.80;99.90;;;;;;5109569;27;20068;-78
2024/02/04 01:52:00;;;;;;;0.52;0.52;;;5.70;99.90;;;;;;5126787;27;20046;-78
2024/02/04 01:54:31;;;;;;;0.47;0.47;;;5.70;99.90;;;;;;5124087;27;20118;-78
2024/02/04 01:57:01;;;;;;;0.47;0.47;;;5.70;99.90;;;;;;5106177;27;20068;-78
2024/02/04 01:59:30;;;;;;;0.57;0.57;;;5.80;99.90;;;;;;5146151;27;20045;-78
2024/02/04 02:01:59;;;;;;;0.40;0.40;;;5.70;99.90;;;;;;5141580;27;20443;-79
2024/02/04 02:04:25;;;;;;;0.50;0.50;;;5.70;99.90;;;;;;5143854;27;20042;-78
2024/02/04 02:06:55;;;;;;;0.60;0.60;;;5.60;99.90;;;;;;5140917;27;20035;-78
2024/02/04 02:09:22;;;;;;;0.80;0.80;;;5.60;99.90;;;;;;5124531;27;20161;-78
2024/02/04 02:12:04;;;;;;;0.47;0.47;;;5.60;99.90;;;;;;5139773;27;20031;-79
2024/02/04 02:14:33;;;;;;;9.95;1.98;;;5.70;99.90;;;;;;5129355;27;20041;-79
2024/02/04 02:17:06;;;;;;;0.60;0.60;;;5.90;99.90;;;;;;5144959;27;20502;-79
2024/02/04 02:19:59;;;;;;;0.52;0.52;;;5.70;99.90;;;;;;5151163;27;20042;-79
2024/02/04 02:22:32;;;;;;;0.50;0.50;;;5.60;99.90;;;;;;5151366;27;20045;-78
2024/02/04 02:24:59;;;;;;;0.60;0.60;;;;;;;;;;5143115;27;20114;-78
2024/02/04 02:27:25;;;;;;;0.60;0.60;;;;;;;;;;5122152;27;20110;-77
2024/02/04 02:29:52;;;;;;;0.80;0.80;;;;;;;;;;5142024;27;20134;-77
2024/02/04 02:32:18;;;;;;;;;;;;;;;;;;5126127;27;20031;-76
2024/02/04 02:34:44;;;;;;;1.02;0.90;;;;;;;;;;5142569;27;19920;-76
2024/02/04 02:37:10;;;;;;;;;;;;;;;;;;5138077;27;20042;-77
2024/02/04 02:39:40;;;;;;;0.50;0.50;;;;;;;;;;5141804;27;20300;-79
2024/02/04 02:42:07;;;;;;;0.40;0.40;;;;;;;;;;5140269;27;20038;-77
2024/02/04 02:44:33;;;;;;;0.63;0.63;;;;;;;;;;5125824;27;20035;-77
2024/02/04 02:47:00;;;;;;;0.60;0.60;;;;;;;;;;5139772;27;20077;-78
2024/02/04 02:49:26;;;;;;;0.60;0.60;;;;;;;;;;5124707;27;20037;-77
2024/02/04 02:51:52;;;;;;;0.60;0.60;;;;;;;;;;5139647;27;20559;-79
2024/02/04 02:54:18;;;;;;;0.50;0.50;;;;;;;;;;5126946;27;20043;-78
2024/02/04 02:56:45;;;;;;;0.55;0.55;;;;;;;;;;5138051;27;20042;-77
2024/02/04 02:59:11;;;;;;;0.50;0.50;;;;;;;;;;5142375;27;20038;-77
2024/02/04 03:01:39;;;;;;;0.50;0.50;;;;;;;;;;5126812;27;20035;-77
2024/02/04 03:04:05;;;;;;;0.50;0.50;;;;;;;;;;5144352;27;20046;-78
2024/02/04 03:06:31;;;;;;;0.50;0.50;;;;;;;;;;5137789;27;20119;-78
2024/02/04 03:08:57;;;;;;;0.55;0.55;;;;;;;;;;5143566;27;20042;-78
2024/02/04 03:11:23;;;;;;;0.60;0.60;;;;;;;;;;5142827;27;20500;-79
2024/02/04 03:13:49;;;;;;;0.40;0.40;;;;;;;;;;5125905;27;20039;-79
2024/02/04 03:16:16;;;;;;;0.60;0.60;;;;;;;;;;5155396;27;20045;-86
2024/02/04 03:18:43;;;;;;;0.52;0.52;;;;;;;;;;5139690;27;20035;-85
2024/02/04 03:21:15;;;;;;;0.52;0.52;;;;;;;;;;5127162;27;20087;-86
2024/02/04 03:23:42;;;;;;;0.50;0.50;;;;;;;;;;5131109;27;20540;-86
2024/02/04 03:26:09;;;;;;;0.50;0.50;;;;;;;;;;5149151;27;20519;-86
2024/02/04 03:28:35;;;;;;;1.45;1.35;;;;;;;;;;5150548;27;20057;-86
2024/02/04 03:31:01;;;;;;;0.60;0.60;;;;;;;;;;5134952;27;20058;-86
2024/02/04 03:33:27;;;;;;;;;;;;;;;;;;5152527;27;20074;-86
2024/02/04 03:35:57;;;;;;;0.60;0.60;;;;;;;;;;5149215;27;19981;-86
2024/02/04 03:38:23;;;;;;;0.60;0.60;;;;;;;;;;5143435;27;20051;-85
2024/02/04 03:40:49;;;;;;;0.55;0.55;;;;;;;;;;5154537;27;20043;-86
2024/02/04 03:43:17;;;;;;;0.50;0.50;;;;;;;;;;5131114;27;20492;-88
2024/02/04 03:45:43;;;;;;;0.60;0.60;;;;;;;;;;5136094;27;20035;-88
2024/02/04 03:48:10;;;;;;;0.40;0.40;;;;;;;;;;5155331;27;20041;-87
2024/02/04 03:50:36;;;;;;;0.70;0.70;;;;;;;;;;5133145;27;20041;-87
2024/02/04 03:53:02;;;;;;;0.43;0.43;;;;;;;;;;5135861;27;20066;-87
2024/02/04 03:55:29;;;;;;;;;;;;;;;;;;5128776;27;20042;-87
2024/02/04 03:57:57;;;;;;;0.50;0.50;;;;;;;;;;5152876;27;19915;-87
2024/02/04 04:00:23;;;;;;;0.50;0.50;;;;;;;;;;5138400;27;20057;-87
2024/02/04 04:02:49;;;;;;;;;;;;;;;;;;5138742;27;20042;-87
2024/02/04 04:05:15;;;;;;;0.60;0.60;;;;;;;;;;5154510;27;19919;-87
2024/02/04 04:07:41;;;;;;;0.60;0.60;;;;;;;;;;5154071;27;20077;-87
2024/02/04 04:10:07;;;;;;;;;;;;;;;;;;5133233;27;20066;-87
2024/02/04 04:12:34;;;;;;;0.45;0.45;;;;;;;;;;5136171;27;20295;-86
2024/02/04 04:15:04;;;;;;;0.80;0.80;;;;;;;;;;5154849;27;20159;-85
2024/02/04 04:17:30;;;;;;;0.50;0.50;;;;;;;;;;5136057;27;20035;-87
2024/02/04 04:19:56;;;;;;;0.50;0.50;;;;;;;;;;5155693;27;20118;-85
2024/02/04 04:22:22;;;;;;;0.50;0.50;;;;;;;;;;5134224;27;20489;-86
2024/02/04 04:24:48;;;;;;;0.50;0.50;;;;;;;;;;5129963;27;20039;-78
2024/02/04 04:27:14;;;;;;;;;;;;;;;;;;5142700;27;20142;-77
2024/02/04 04:29:40;;;;;;;1.00;1.00;;;;;;;;;;5124339;27;20006;-77
2024/02/04 04:32:06;;;;;;;;;;;;;;;;;;5139690;27;20039;-78
2024/02/04 04:34:32;;;;;;;0.50;0.50;;;;;;;;;;5137837;27;19946;-78
2024/02/04 04:36:58;;;;;;;0.80;0.80;;;;;;;;;;5138106;27;20377;-78
2024/02/04 04:39:24;;;;;;;1.02;1.02;;;;;;;;;;5136840;27;20125;-78
2024/02/04 04:41:50;;;;;;;;;;;;;;;;;;5143564;27;20130;-78
2024/02/04 04:44:16;;;;;;;1.05;1.05;;;;;;;;;;5146543;27;19915;-78
2024/02/04 04:46:42;;;;;;;0.60;0.60;;;;;;;;;;5144467;27;20035;-78
2024/02/04 04:49:08;;;;;;;0.52;0.52;;;;;;;;;;5145814;27;20027;-77
2024/02/04 04:51:34;;;;;;;0.40;0.40;;;;;;;;;;5148024;27;20099;-78
2024/02/04 04:54:00;;;;;;;0.77;0.77;;;;;;;;;;5143512;27;20413;-78
2024/02/04 04:56:26;;;;;;;;;;;;;;;;;;5110334;27;20066;-77
2024/02/04 04:58:55;;;;;;;0.60;0.60;;;;;;;;;;5146940;27;19987;-79
2024/02/04 05:01:21;;;;;;;0.40;0.40;;;;;;;;;;5146040;27;20078;-78
2024/02/04 05:03:48;;;;;;;0.50;0.50;;;;;;;;;;5132387;27;20086;-78
2024/02/04 05:06:15;;;;;;;0.60;0.60;;;;;;;;;;5149553;27;20509;-77
2024/02/04 05:08:42;;;;;;;0.73;0.73;;;;;;;;;;5145919;27;20596;-77
2024/02/04 05:11:08;;;;;;;1.10;1.10;;;;;;;;;;5147792;27;20046;-79
2024/02/04 05:13:35;;;;;;;0.85;0.85;;;;;;;;;;5143839;27;20039;-77
2024/02/04 05:16:01;;;;;;;0.60;0.60;;;;;;;;;;5143597;27;20039;-79
2024/02/04 05:18:27;;;;;;;0.60;0.60;;;;;;;;;;5147088;27;20047;-78
2024/02/04 05:20:53;;;;;;;;;;;;;;;;;;5124691;27;20067;-78
2024/02/04 05:23:19;;;;;;;0.40;0.40;;;;;;;;;;5141012;27;19922;-78
2024/02/04 05:25:45;;;;;;;1.98;1.88;;;;;;;;;;5114467;27;20126;-77
2024/02/04 05:28:11;;;;;;;0.60;0.60;;;;;;;;;;5150028;27;20063;-78
2024/02/04 05:30:37;;;;;;;0.40;0.40;;;;;;;;;;5141871;27;20051;-77
2024/02/04 05:33:03;;;;;;;;;;;;;;;;;;5150446;27;20046;-78
2024/02/04 05:35:29;;;;;;;1.10;0.90;;;;;;;;;;5144484;27;19919;-86
2024/02/04 05:37:55;;;;;;;;;;;;;;;;;;5152973;27;20042;-86
2024/02/04 05:40:21;;;;;;;0.60;0.60;;;;;;;;;;5150842;27;19915;-85
2024/02/04 05:42:48;;;;;;;0.60;0.60;;;;;;;;;;5155584;27;20053;-86
2024/02/04 05:45:14;;;;;;;;;;;;;;;;;;5144620;27;20046;-91
2024/02/04 05:47:40;;;;;;;0.52;0.52;;;;;;;;;;5159956;27;19916;-86
2024/02/04 05:50:08;;;;;;;0.45;0.45;;;;;;;;;;5161601;27;20050;-85
2024/02/04 05:52:34;;;;;;;0.43;0.43;;;;;;;;;;5172712;27;20094;-86
2024/02/04 05:55:00;;;;;;;0.45;0.45;;;;;;;;;;5163444;27;20054;-86
2024/02/04 05:57:26;;;;;;;3.30;3.10;;;;;;;;;;5147670;27;20043;-87
2024/02/04 05:59:52;;;;;;;0.60;0.60;;;;;;;;;;5158555;27;20035;-85
2024/02/04 06:02:19;;;;;;;0.60;0.60;;;;;;;;;;5149268;27;20066;-87
2024/02/04 06:04:45;;;;;;;0.75;0.70;;;;;;;;;;5163480;27;20031;-84
2024/02/04 06:07:12;;;;;;;0.40;0.40;;;;;;;;;;5165993;27;20037;-85
2024/02/04 06:09:38;;;;;;;0.57;0.57;;;;;;;;;;5157613;27;20034;-86
2024/02/04 06:12:06;;;;;;;;;;;;;;;;;;5162289;27;20392;-87
2024/02/04 06:14:34;;;;;;;0.50;0.50;;;;;;;;;;5158092;27;19899;-88
2024/02/04 06:17:01;;;;;;;0.60;0.60;;;;;;;;;;5159899;27;20157;-84
2024/02/04 06:19:32;;;;;;;0.50;0.50;;;;;;;;;;5136661;27;20061;-85
2024/02/04 06:21:58;;;;;;;0.50;0.50;;;;;;;;;;5147488;27;20043;-86
2024/02/04 06:24:26;;;;;;;0.60;0.60;;;;;;;;;;5141969;27;20043;-86
2024/02/04 06:26:52;;;;;;;0.50;0.50;;;;;;;;;;5154932;27;20066;-86
2024/02/04 06:29:19;;;;;;;1.33;1.08;;;;;;;;;;5150341;27;20068;-85
2024/02/04 06:31:46;;;;;;;0.50;0.50;;;;;;;;;;5141303;27;20055;-86
2024/02/04 06:34:15;;;;;;;1.65;1.55;;;;;;;;;;5153151;27;20031;-86
2024/02/04 06:36:45;;;;;;;0.50;0.50;;;;;;;;;;5149367;27;20035;-87
2024/02/04 06:39:17;;;;;;;6.95;4.72;;;;;;;;;;5139495;27;20380;-86
2024/02/04 06:41:43;;;;;;;1.10;1.00;;;;;;;;;;5156815;27;20039;-85
2024/02/04 06:44:09;;;;;;;0.40;0.40;;;;;;;;;;5153619;27;20041;-88
2024/02/04 06:46:35;;;;;;;;;;;;;;;;;;5127991;27;20043;-77
2024/02/04 06:49:08;;;;;;;12.50;1.27;;;;;;;;;;5144245;27;19963;-77
2024/02/04 06:51:35;;;;;;;0.50;0.50;;;;;;;;;;5142087;27;20039;-76
2024/02/04 06:54:01;;;;;;;0.60;0.60;;;;;;;;;;5143340;27;20424;-75
2024/02/04 06:56:26;;;;;;;;;;;6.70;99.90;;;;;;5144655;27;20030;-78
2024/02/04 06:58:53;;;;;;;0.57;0.57;;;6.90;99.90;;;;;;5130752;27;20340;-81
2024/02/04 07:01:22;;;;;;;0.40;0.40;;;6.80;99.90;;;;;;5140796;27;20515;-79
2024/02/04 07:03:49;;;;;;;;;;;6.80;99.90;;;;;;5147744;27;20043;-78
2024/02/04 07:06:17;;;;;;;0.40;0.40;;;6.80;99.90;;;;;;5145275;27;19934;-76
2024/02/04 07:08:42;;;;;;;1.00;1.00;;;6.80;99.90;;;;;;5093540;27;20042;-78
2024/02/04 07:11:08;;;;;;;0.50;0.50;;;6.80;99.90;;;;;;5144341;27;20031;-78
2024/02/04 07:13:34;;;;;;;0.47;0.47;;;6.80;99.90;;;;;;5147409;27;20091;-80
2024/02/04 07:16:06;;;;;;;0.50;0.50;;;6.80;99.90;;;;;;5140388;27;20050;-79
2024/02/04 07:18:32;;;;;;;0.98;0.98;;;6.90;99.90;;;;;;5117372;27;20031;-79
2024/02/04 07:21:12;;;;;;;;;;;6.90;99.90;;;;;;5127244;27;20043;-76
2024/02/04 07:23:44;;;;;;;0.60;0.60;;;6.10;99.90;;;;;;5147813;27;19923;-76
2024/02/04 07:26:21;;;;;;;0.60;0.60;;;6.80;99.90;;;;;;5145044;27;20076;-77
2024/02/04 07:28:53;;;;;;;0.47;0.47;;;6.90;99.90;;;;;;5139281;27;20039;-79
2024/02/04 07:31:19;;;;;;;0.50;0.50;;;6.90;99.90;;;;;;5146359;27;20090;-79
2024/02/04 07:33:49;;;;;;;0.60;0.60;;;6.90;99.90;;;;;;5144086;27;20476;-77
2024/02/04 07:36:16;;;;;;;0.55;0.55;;;6.90;99.90;;;;;;5142106;27;20049;-77
2024/02/04 07:38:52;;;;;;;0.55;0.55;;;6.90;99.90;;;;;;5143531;27;20035;-78
2024/02/04 07:41:19;;;;;;;0.50;0.50;;;6.90;99.90;;;;;;5148962;27;20037;-76
2024/02/04 07:43:45;;;;;;;0.40;0.40;;;6.90;99.90;;;;;;5144523;27;20050;-77
2024/02/04 07:46:11;;;;;;;;;;;6.90;99.90;;;;;;5145494;27;20091;-79
2024/02/04 07:48:44;;;;;;;0.43;0.43;;;7.00;99.90;;;;;;5146034;27;20290;-79
2024/02/04 07:51:20;;;;;;;0.40;0.40;;;7.00;99.90;;;;;;5141238;27;20088;-78
2024/02/04 07:53:46;;;;;;;0.60;0.60;;;7.10;99.90;;;;;;5151450;27;20055;-77
2024/02/04 07:56:12;;;;;;;0.77;0.77;;;7.10;99.90;;;;;;5142865;27;20031;-87
2024/02/04 07:58:38;;;;;;;0.50;0.50;;;7.10;99.90;;;;;;5141883;27;20038;-88
2024/02/04 08:01:04;;;;;;;0.50;0.50;;;7.10;99.90;;;;;;5139742;27;20584;-88
2024/02/04 08:03:30;;;;;;;0.60;0.60;;;7.10;99.90;;;;;;5139041;27;20042;-86
2024/02/04 08:05:57;;;;;;;0.50;0.50;;;7.10;99.90;;;;;;5138091;27;20047;-87
2024/02/04 08:08:40;;;;;;;0.40;0.40;;;7.10;99.90;;;;;;5155231;27;20033;-86
2024/02/04 08:11:08;;;;;;;0.55;0.55;;;7.10;99.90;;;;;;5153432;27;20107;-86
2024/02/04 08:13:35;;;;;;;0.50;0.50;;;7.10;99.90;;;;;;5132725;27;20141;-85
2024/02/04 08:16:12;;;;;;;0.57;0.57;;;7.10;99.90;;;;;;5152514;27;21194;-87
2024/02/04 08:18:45;;;;;;;0.40;0.40;;;7.20;99.90;;;;;;5138760;27;20093;-86
2024/02/04 08:21:12;;;;;;;0.80;0.80;;;7.20;99.90;;;;;;5158605;27;20075;-88
2024/02/04 08:23:42;;;;;;;0.63;0.63;;;7.20;99.90;;;;;;5148088;27;20163;-92
2024/02/04 08:26:10;;;;;;;0.50;0.50;;;7.20;99.90;;;;;;5152209;27;20084;-89
2024/02/04 08:28:39;;;;;;;1.02;1.02;;;7.30;99.90;;;;;;5161639;27;20039;-90
2024/02/04 08:31:14;;;;;;;3.55;0.95;;;7.40;99.90;;;;;;5167100;27;20047;-90
2024/02/04 08:33:41;;;;;;;0.80;0.80;;;7.30;99.90;;;;;;5163491;27;20035;-87
2024/02/04 08:36:12;;;;;;;1.05;1.05;;;7.30;99.90;;;;;;5160895;27;20039;-89
2024/02/04 08:38:49;;;;;;;0.43;0.43;;;7.40;99.90;;;;;;5169028;27;20068;-89
2024/02/04 08:41:23;;;;;;;0.50;0.50;;;7.40;99.90;;;;;;5165137;27;20034;-88
2024/02/04 08:43:48;;;;;;;0.45;0.45;;;7.50;99.90;;;;;;5169009;27;20030;-91
2024/02/04 08:46:16;;;;;;;0.60;0.60;;;7.50;99.90;;;;;;5132565;27;20834;-88
2024/02/04 08:48:42;;;;;;;0.50;0.50;;;7.50;99.90;;;;;;5162899;27;20122;-89
2024/02/04 08:51:15;;;;;;;0.50;0.50;;;7.50;99.90;;;;;;5161408;27;20092;-90
2024/02/04 08:53:46;;;;;;;3.13;1.17;;;7.50;99.90;;;;;;5164308;27;20055;-88
2024/02/04 08:56:11;;;;;;;0.60;0.60;;;7.50;99.90;;;;;;5152650;27;20045;-91
2024/02/04 08:58:42;;;;;;;0.50;0.50;;;7.60;99.90;;;;;;5173661;27;20165;-88
2024/02/04 09:01:18;;;;;;;0.47;0.47;;;7.60;99.90;;;;;;5171779;27;20027;-86
2024/02/04 09:03:51;;;;;;;3.55;0.57;;;7.60;99.90;;;;;;5137903;27;20182;-89
2024/02/04 09:06:16;;;;;;;0.40;0.40;;;7.70;99.90;;;;;;5153544;27;20115;-79
2024/02/04 09:08:42;;;;;;;0.50;0.50;;;7.70;99.90;;;;;;5149556;27;20039;-77
2024/02/04 09:11:08;;;;;;;0.47;0.47;;;7.70;99.90;;;;;;5111389;27;20034;-78
2024/02/04 09:13:46;;;;;;;0.50;0.50;;;8.00;99.90;;;;;;5150701;27;20425;-78
2024/02/04 09:16:13;;;;;;;0.95;0.95;;;7.80;99.90;;;;;;5146867;27;20089;-78
2024/02/04 09:18:39;;;;;;;0.40;0.40;;;7.70;99.90;;;;;;5148361;27;20038;-76
2024/02/04 09:21:05;;;;;;;0.60;0.60;;;7.80;99.90;;;;;;5145734;27;20591;-78
2024/02/04 09:23:31;;;;;;;0.50;0.50;;;7.80;99.90;;;;;;5146187;27;20037;-80
2024/02/04 09:25:57;;;;;;;1.65;0.70;;;7.80;99.90;;;;;;5145215;27;20117;-76
2024/02/04 09:28:23;;;;;;;0.50;0.50;;;7.80;99.90;;;;;;5126246;27;20050;-77
2024/02/04 09:30:49;;;;;;;0.50;0.50;;;7.80;99.90;;;;;;5140582;27;20437;-77
2024/02/04 09:33:16;;;;;;;0.40;0.40;;;7.90;99.90;;;;;;5133029;27;20074;-78
2024/02/04 09:35:42;;;;;;;0.50;0.50;;;7.90;99.90;;;;;;5142761;27;20050;-79
2024/02/04 09:38:09;;;;;;;;;;;7.90;99.90;;;;;;5124119;27;20051;-78
2024/02/04 09:40:37;;;;;;;1.05;1.05;;;8.00;99.90;;;;;;5149381;27;19922;-78
2024/02/04 09:43:25;;;;;;;0.57;0.57;;;8.00;99.90;;;;;;5148681;27;20043;-77
2024/02/04 09:45:52;;;;;;;1.08;0.80;;;8.10;99.90;;;;;;5145561;27;20031;-80
2024/02/04 09:48:20;;;;;;;1.15;1.15;;;8.10;99.90;;;;;;5115300;27;20043;-77
2024/02/04 09:50:52;;;;;;;0.43;0.43;;;8.20;99.90;;;;;;5149290;27;20118;-78
2024/02/04 09:53:37;;;;;;;0.40;0.40;;;8.20;99.90;;;;;;5127919;27;20035;-78
2024/02/04 09:56:14;;;;;;;1.27;1.27;;;8.20;99.90;;;;;;5149006;27;20049;-76
2024/02/04 09:58:40;;;;;;;1.20;1.20;;;8.00;99.90;;;;;;5150657;27;20035;-78
2024/02/04 10:01:08;;;;;;;0.50;0.50;;;8.30;99.90;;;;;;5128989;27;20070;-79
2024/02/04 10:03:36;;;;;;;0.47;0.47;;;8.50;99.90;;;;;;5148995;27;20069;-78
2024/02/04 10:06:04;;;;;;;0.40;0.40;;;8.30;99.90;;;;;;5146431;27;20054;-78
2024/02/04 10:08:36;;;;;;;1.40;1.30;;;8.40;99.90;;;;;;5150622;27;20055;-78
2024/02/04 10:11:05;;;;;;;0.52;0.52;;;8.30;99.90;;;;;;5150316;27;20117;-77
2024/02/04 10:13:30;;;;;;;0.85;0.85;;;8.30;99.90;;;;;;5150788;27;20455;-79
2024/02/04 10:15:56;;;;;;;1.50;1.50;;;8.30;99.90;;;;;;5108790;27;20369;-79
2024/02/04 10:18:22;;;;;;;0.57;0.57;;;8.30;99.90;;;;;;5135849;27;20098;-85
2024/02/04 10:20:49;;;;;;;0.90;0.90;;;8.30;99.90;;;;;;5167398;27;20039;-91
2024/02/04 10:23:16;;;;;;;0.40;0.40;;;8.40;99.90;;;;;;5167284;27;20046;-89
2024/02/04 10:25:45;;;;;;;0.43;0.43;;;8.40;99.90;;;;;;5151157;27;20038;-88
2024/02/04 10:28:12;;;;;;;0.60;0.60;;;8.40;99.90;;;;;;5166965;27;20081;-86
2024/02/04 10:30:42;;;;;;;0.70;0.70;;;8.50;99.90;;;;;;5157004;27;20047;-89
2024/02/04 10:33:08;;;;;;;0.50;0.50;;;8.50;99.90;;;;;;5151753;27;20042;-85
2024/02/04 10:35:36;;;;;;;0.43;0.43;;;8.60;99.90;;;;;;5141342;27;20043;-84
2024/02/04 10:38:06;;;;;;;0.60;0.60;;;8.70;99.90;;;;;;5160323;27;20038;-87
2024/02/04 10:40:36;;;;;;;0.82;0.82;;;8.70;99.90;;;;;;5155046;27;20034;-87
2024/02/04 10:43:16;;;;;;;0.57;0.57;;;8.80;99.90;;;;;;5159670;27;20575;-84
2024/02/04 10:45:46;;;;;;;0.50;0.50;;;8.40;99.90;;;;;;5155934;27;20099;-86
2024/02/04 10:48:23;;;;;;;0.50;0.50;;;8.90;99.90;;;;;;5149812;27;20037;-84
2024/02/04 10:50:58;;;;;;;0.40;0.40;;;9.00;99.90;;;;;;5151742;27;21875;-85
2024/02/04 10:53:46;;;;;;;0.32;0.32;;;9.00;99.90;;;;;;5156987;27;20049;-84
2024/02/04 10:56:34;;;;;;;0.65;0.65;;;9.00;99.90;;;;;;5154251;27;20138;-87
2024/02/04 10:59:02;;;;;;;0.40;0.40;;;9.00;99.90;;;;;;5153450;27;20038;-85
2024/02/04 11:01:29;;;;;;;1.40;1.20;;;9.00;99.90;;;;;;5132772;27;20046;-84
2024/02/04 11:03:57;;;;;;;12.13;0.77;;;9.00;99.90;;;;;;5135794;27;20043;-82
2024/02/04 11:06:27;;;;;;;0.40;0.40;;;9.00;99.90;;;;;;5155006;27;20045;-84
2024/02/04 11:09:01;;;;;;;0.45;0.45;;;9.00;99.90;;;;;;5135532;27;20053;-83
2024/02/04 11:11:28;;;;;;;0.57;0.57;;;10.30;99.90;;;;;;5123595;27;20063;-84
2024/02/04 11:14:01;;;;;;;0.50;0.50;;;9.60;99.90;;;;;;5123322;27;20106;-82
2024/02/04 11:16:46;;;;;;;0.38;0.38;;;9.00;99.90;;;;;;5136641;27;20121;-85
2024/02/04 11:19:23;;;;;;;0.50;0.50;;;8.90;99.90;;;;;;5139447;27;20053;-85
2024/02/04 11:22:38;;;;;;;0.40;0.40;;;9.20;99.90;;;;;;5152862;27;20129;-82
2024/02/04 11:25:32;;;;;;;0.45;0.45;;;8.90;99.90;;;;;;5113511;27;20123;-86
2024/02/04 11:28:03;;;;;;;0.52;0.52;;;9.00;99.90;;;;;;5139886;27;20047;-77
2024/02/04 11:30:32;;;;;;;;;;;9.00;99.90;;;;;;5107616;27;20057;-78
2024/02/04 11:33:04;;;;;;;0.68;0.68;;;8.00;99.90;;;;;;5126212;27;19915;-78
2024/02/04 11:35:36;;;;;;;0.40;0.40;;;9.10;99.90;;;;;;5149852;27;20076;-80
2024/02/04 11:38:22;;;;;;;;;;;9.10;99.90;;;;;;5147850;27;20076;-81
2024/02/04 11:40:53;;;;;;;0.30;0.30;;;9.10;99.90;;;;;;5151281;27;19923;-78
2024/02/04 11:43:29;;;;;;;0.57;0.57;;;9.10;99.90;;;;;;5147777;27;20043;-80
2024/02/04 11:46:04;;;;;;;1.15;1.15;;;9.10;99.90;;;;;;5129531;27;20126;-81
2024/02/04 11:48:32;;;;;;;0.50;0.50;;;9.10;99.90;;;;;;5151143;27;20043;-79
2024/02/04 11:51:18;;;;;;;0.60;0.60;;;9.20;99.90;;;;;;5148581;27;20511;-78
2024/02/04 11:53:44;;;;;;;0.95;0.95;;;9.20;99.90;;;;;;5152398;27;20054;-80
2024/02/04 11:56:19;;;;;;;1.95;1.85;;;9.30;99.90;;;;;;5115998;27;20415;-79
2024/02/04 11:58:45;;;;;;;0.45;0.45;;;9.20;99.90;;;;;;5149281;27;20046;-79
2024/02/04 12:01:17;;;;;;;0.50;0.45;;;9.20;99.90;;;;;;5152189;27;20063;-78
2024/02/04 12:03:44;;;;;;;0.40;0.40;;;9.30;99.90;;;;;;5129861;27;20099;-77
2024/02/04 12:06:19;;;;;;;0.60;0.60;;;9.30;99.90;;;;;;5151663;27;20043;-75
2024/02/04 12:09:08;;;;;;;0.50;0.50;;;9.30;99.90;;;;;;5148595;27;20126;-81
2024/02/04 12:11:39;;;;;;;0.50;0.50;;;9.50;99.90;;;;;;5143428;27;20070;-78
2024/02/04 12:14:08;;;;;;;0.40;0.40;;;9.40;99.90;;;;;;5150889;27;20035;-80
2024/02/04 12:16:38;;;;;;;2.80;1.80;;;9.40;99.90;;;;;;5151897;27;20659;-78
2024/02/04 12:19:08;;;;;;;0.40;0.40;;;9.50;99.90;;;;;;5153033;27;20042;-77
2024/02/04 12:21:46;;;;;;;0.50;0.50;;;9.40;99.90;;;;;;5151476;27;20507;-78
2024/02/04 12:24:13;;;;;;;0.55;0.55;;;9.50;99.90;;;;;;5132811;27;20469;-80
2024/02/04 12:26:47;;;;;;;0.40;0.40;;;9.60;99.90;;;;;;5148505;27;20427;-77
2024/02/04 12:29:19;;;;;;;0.40;0.40;;;9.50;99.90;;;;;;5129617;27;20086;-79
2024/02/04 12:32:03;;;;;;;1.02;1.02;;;9.60;99.90;;;;;;5148187;27;20042;-80
2024/02/04 12:34:30;;;;;;;0.57;0.57;;;9.60;99.90;;;;;;5141952;27;20035;-80
2024/02/04 12:37:02;;;;;;;0.50;0.50;;;9.50;99.90;;;;;;5141595;27;20043;-80
2024/02/04 12:39:40;;;;;;;0.40;0.40;;;9.60;99.90;;;;;;5155815;27;20039;-84
2024/02/04 12:42:06;;;;;;;1.40;1.30;;;9.50;99.90;;;;;;5155481;27;20046;-83
2024/02/04 12:44:39;;;;;;;0.30;0.30;;;9.50;99.90;;;;;;5123284;28;20042;-84
2024/02/04 12:47:12;;;;;;;0.30;0.30;;;9.40;99.90;;;;;;5154164;27;20560;-85
2024/02/04 12:49:37;;;;;;;0.47;0.47;;;9.40;99.90;;;;;;5139290;27;20395;-85
2024/02/04 12:52:07;;;;;;;;;;;9.40;99.90;;;;;;5160070;27;20054;-87
2024/02/04 12:54:43;;;;;;;0.50;0.50;;;9.40;99.90;;;;;;5133126;27;19926;-84
2024/02/04 12:57:32;;;;;;;0.52;0.52;;;9.30;99.90;;;;;;5156651;27;20065;-86
2024/02/04 13:00:06;;;;;;;0.50;0.50;;;9.30;99.90;;;;;;5150251;27;20377;-85
2024/02/04 13:02:38;;;;;;;0.57;0.57;;;9.30;99.90;;;;;;5138957;27;20114;-82
2024/02/04 13:05:04;;;;;;;0.95;0.95;;;9.30;99.90;;;;;;5162690;27;20038;-86
2024/02/04 13:07:30;;;;;;;0.50;0.50;;;9.40;99.90;;;;;;5138895;27;20038;-84
2024/02/04 13:09:59;;;;;;;;;;;9.30;99.90;;;;;;5156439;27;20034;-86
2024/02/04 13:12:35;;;;;;;2.22;0.65;;;9.30;99.90;;;;;;5157312;27;19915;-85
2024/02/04 13:15:01;;;;;;;0.65;0.65;;;9.30;99.90;;;;;;5143277;27;20511;-85
2024/02/04 13:17:37;;;;;;;0.28;0.28;;;9.30;99.90;;;;;;5160255;27;20054;-85
2024/02/04 13:20:04;;;;;;;0.40;0.40;;;9.30;99.90;;;;;;5158076;27;20066;-85
2024/02/04 13:22:32;;;;;;;0.82;0.82;;;9.20;99.90;;;;;;5155875;27;20626;-85
2024/02/04 13:25:13;;;;;;;0.50;0.50;;;9.20;99.90;;;;;;5159611;27;20049;-84
2024/02/04 13:27:42;;;;;;;0.30;0.30;;;9.30;99.90;;;;;;5160674;27;20073;-85
2024/02/04 13:30:12;;;;;;;0.43;0.43;;;8.00;99.90;;;;;;5159294;27;20043;-85
2024/02/04 13:32:50;;;;;;;0.40;0.40;;;9.10;99.90;;;;;;5159339;27;20034;-82
2024/02/04 13:35:21;;;;;;;0.40;0.40;;;9.10;99.90;;;;;;5162974;27;20069;-85
2024/02/04 13:37:50;;;;;;;0.50;0.50;;;9.00;99.90;;;;;;5157277;27;20039;-86
2024/02/04 13:40:26;;;;;;;0.55;0.55;;;9.10;99.90;;;;;;5160421;27;20053;-84
2024/02/04 13:42:52;;;;;;;0.38;0.38;;;9.00;99.90;;;;;;5158240;27;20054;-86
2024/02/04 13:45:19;;;;;;;3.75;0.63;;;8.80;99.90;;;;;;5165473;27;20030;-85
2024/02/04 13:47:45;;;;;;;0.30;0.30;;;9.00;99.90;;;;;;5125622;27;20120;-85